createdAt,value
2019-05-10T00:00:33.057Z,22.00
2019-05-10T00:03:20.168Z,22.90
2019-05-10T00:06:07.142Z,22.60
2019-05-10T00:08:47.451Z,23.07
2019-05-10T00:11:41.088Z,22.93
2019-05-10T00:14:19.791Z,22.40
2019-05-10T00:16:49.575Z,22.80
2019-05-10T00:19:18.375Z,22.60
2019-05-10T00:21:47.709Z,23.10
2019-05-10T00:24:17.223Z,22.47
2019-05-10T00:26:46.190Z,22.97
2019-05-10T00:29:15.181Z,22.87
2019-05-10T00:31:43.963Z,22.20
2019-05-10T00:34:13.397Z,23.00
2019-05-10T00:36:42.396Z,21.73
2019-05-10T00:39:11.380Z,22.10
2019-05-10T00:41:40.638Z,22.20
2019-05-10T00:44:09.556Z,22.20
2019-05-10T00:46:38.427Z,21.87
2019-05-10T00:49:07.365Z,21.10
2019-05-10T00:51:36.195Z,20.90
2019-05-10T00:54:05.278Z,21.77
2019-05-10T00:56:34.100Z,21.90
2019-05-10T00:59:03.020Z,21.80
2019-05-10T01:01:31.745Z,21.20
2019-05-10T01:04:01.327Z,21.43
2019-05-10T01:06:30.147Z,21.50
2019-05-10T01:08:59.066Z,21.60
2019-05-10T01:11:27.933Z,21.20
2019-05-10T01:13:56.975Z,21.20
2019-05-10T01:16:25.810Z,20.57
2019-05-10T01:18:54.640Z,19.87
2019-05-10T01:21:23.627Z,19.53
2019-05-10T01:23:52.408Z,19.30
2019-05-10T01:26:21.246Z,18.57
2019-05-10T01:28:50.071Z,18.63
2019-05-10T01:31:19.120Z,17.80
2019-05-10T01:33:48.115Z,16.90
2019-05-10T01:36:16.985Z,16.83
2019-05-10T01:38:46.136Z,17.10
2019-05-10T01:41:15.319Z,17.37
2019-05-10T01:43:44.135Z,16.20
2019-05-10T01:46:13.059Z,15.33
2019-05-10T01:48:41.835Z,15.10
2019-05-10T01:51:11.057Z,15.00
2019-05-10T01:53:40.095Z,15.07
2019-05-10T01:56:09.272Z,15.00
2019-05-10T01:58:38.275Z,15.80
2019-05-10T02:01:07.079Z,15.00
2019-05-10T02:03:36.103Z,15.50
2019-05-10T02:06:04.900Z,15.20
2019-05-10T02:08:33.916Z,14.53
2019-05-10T02:11:06.816Z,14.27
2019-05-10T02:13:35.761Z,14.83
2019-05-10T02:16:04.643Z,14.27
2019-05-10T02:18:33.426Z,16.20
2019-05-10T02:21:02.356Z,16.13
2019-05-10T02:23:31.136Z,14.57
2019-05-10T02:26:08.934Z,15.83
2019-05-10T02:28:30.908Z,16.30
2019-05-10T02:30:59.853Z,17.10
2019-05-10T02:33:28.693Z,15.57
2019-05-10T02:35:57.664Z,15.97
2019-05-10T02:38:26.416Z,15.90
2019-05-10T02:40:55.389Z,16.70
2019-05-10T02:43:24.355Z,16.93
2019-05-10T02:45:53.860Z,17.20
2019-05-10T02:48:22.694Z,17.17
2019-05-10T02:50:51.803Z,18.10
2019-05-10T02:53:20.684Z,15.27
2019-05-10T02:55:50.611Z,15.20
2019-05-10T02:58:19.665Z,16.43
2019-05-10T03:00:51.198Z,16.47
2019-05-10T03:03:24.919Z,17.07
2019-05-10T03:05:54.700Z,15.00
2019-05-10T03:08:24.621Z,15.40
2019-05-10T03:10:56.586Z,16.80
2019-05-10T03:13:28.990Z,15.17
2019-05-10T03:16:02.179Z,15.10
2019-05-10T03:18:31.876Z,15.77
2019-05-10T03:21:01.666Z,15.50
2019-05-10T03:23:30.851Z,15.37
2019-05-10T03:26:01.270Z,14.33
2019-05-10T03:28:30.618Z,14.63
2019-05-10T03:30:59.857Z,15.20
2019-05-10T03:33:28.962Z,13.53
2019-05-10T03:35:57.995Z,14.80
2019-05-10T03:38:27.088Z,14.40
2019-05-10T03:40:56.127Z,14.57
2019-05-10T03:43:25.109Z,14.33
2019-05-10T03:45:55.190Z,13.27
2019-05-10T03:48:24.151Z,14.00
2019-05-10T03:50:53.300Z,13.20
2019-05-10T03:53:23.369Z,12.70
2019-05-10T03:55:52.260Z,14.27
2019-05-10T03:58:21.085Z,14.30
2019-05-10T04:00:50.341Z,14.23
2019-05-10T04:03:19.203Z,16.20
2019-05-10T04:05:48.170Z,16.10
2019-05-10T04:08:17.123Z,16.27
2019-05-10T04:10:46.054Z,15.70
2019-05-10T04:13:15.216Z,16.60
2019-05-10T04:15:44.500Z,17.87
2019-05-10T04:18:13.280Z,16.70
2019-05-10T04:20:42.433Z,16.57
2019-05-10T04:23:11.237Z,16.50
2019-05-10T04:25:59.207Z,16.60
2019-05-10T04:28:28.034Z,17.00
2019-05-10T04:30:56.952Z,16.93
2019-05-10T04:33:25.816Z,18.03
2019-05-10T04:35:54.555Z,17.63
2019-05-10T04:38:23.398Z,18.13
2019-05-10T04:40:52.206Z,17.87
2019-05-10T04:43:22.119Z,17.63
2019-05-10T04:45:50.857Z,16.90
2019-05-10T04:48:19.688Z,16.10
2019-05-10T04:50:49.448Z,18.00
2019-05-10T04:53:18.535Z,18.80
2019-05-10T04:55:47.389Z,18.20
2019-05-10T04:58:16.508Z,18.40
2019-05-10T05:00:45.734Z,19.50
2019-05-10T05:03:14.652Z,18.00
2019-05-10T05:05:43.664Z,18.17
2019-05-10T05:08:12.559Z,19.17
2019-05-10T05:10:41.294Z,19.00
2019-05-10T05:13:10.157Z,18.80
2019-05-10T05:15:38.978Z,18.60
2019-05-10T05:18:08.124Z,18.60
2019-05-10T05:20:36.963Z,19.23
2019-05-10T05:23:05.833Z,18.23
2019-05-10T05:25:39.885Z,19.00
2019-05-10T05:28:08.239Z,19.33
2019-05-10T05:30:38.670Z,20.37
2019-05-10T05:33:06.639Z,19.50
2019-05-10T05:35:35.467Z,19.27
2019-05-10T05:38:04.363Z,19.70
2019-05-10T05:40:33.239Z,19.83
2019-05-10T05:43:07.773Z,20.33
2019-05-10T05:45:34.001Z,20.10
2019-05-10T05:48:04.280Z,20.10
2019-05-10T05:50:33.272Z,20.33
2019-05-10T05:53:02.103Z,20.70
2019-05-10T05:55:32.272Z,19.20
2019-05-10T05:58:04.836Z,19.97
2019-05-10T06:00:37.745Z,20.23
2019-05-10T06:03:02.568Z,19.90
2019-05-10T06:05:34.619Z,21.90
2019-05-10T06:08:02.140Z,19.10
2019-05-10T06:10:31.082Z,19.70
2019-05-10T06:12:59.989Z,20.27
2019-05-10T06:15:31.487Z,19.57
2019-05-10T06:18:03.663Z,20.90
2019-05-10T06:20:30.279Z,20.93
2019-05-10T06:23:06.396Z,20.20
2019-05-10T06:25:39.192Z,22.37
2019-05-10T06:28:00.006Z,21.67
2019-05-10T06:30:29.336Z,21.23
2019-05-10T06:33:00.434Z,22.60
2019-05-10T06:35:29.152Z,22.63
2019-05-10T06:37:57.994Z,21.30
2019-05-10T06:40:36.007Z,21.53
2019-05-10T06:42:59.563Z,23.03
2019-05-10T06:45:28.648Z,21.30
2019-05-10T06:47:58.531Z,21.67
2019-05-10T06:50:30.399Z,22.80
2019-05-10T06:53:00.476Z,22.87
2019-05-10T06:55:29.544Z,21.73
2019-05-10T06:58:00.671Z,22.87
2019-05-10T07:00:29.269Z,22.30
2019-05-10T07:02:58.115Z,21.27
2019-05-10T07:05:26.972Z,20.90
2019-05-10T07:08:00.496Z,22.23
2019-05-10T07:10:26.672Z,22.00
2019-05-10T07:12:57.318Z,23.00
2019-05-10T07:15:26.933Z,24.03
2019-05-10T07:17:55.773Z,23.30
2019-05-10T07:20:29.621Z,24.00
2019-05-10T07:23:00.086Z,23.87
2019-05-10T07:25:25.998Z,22.73
2019-05-10T07:27:54.794Z,24.33
2019-05-10T07:30:32.534Z,23.30
2019-05-10T07:33:02.007Z,25.17
2019-05-10T07:35:36.959Z,24.77
2019-05-10T07:38:01.908Z,25.27
2019-05-10T07:40:30.821Z,24.67
2019-05-10T07:42:59.740Z,24.77
2019-05-10T07:45:29.392Z,22.80
2019-05-10T07:48:02.355Z,24.30
2019-05-10T07:50:28.691Z,24.37
2019-05-10T07:52:57.542Z,24.00
2019-05-10T07:55:29.511Z,22.53
2019-05-10T07:57:59.136Z,21.53
2019-05-10T08:00:28.031Z,23.33
2019-05-10T08:03:07.539Z,21.90
2019-05-10T08:05:29.517Z,22.47
2019-05-10T08:07:58.840Z,23.20
2019-05-10T08:10:29.041Z,23.00
2019-05-10T08:12:59.620Z,24.13
2019-05-10T08:15:30.510Z,23.07
2019-05-10T08:17:59.607Z,22.50
2019-05-10T08:20:45.783Z,23.37
2019-05-10T08:22:58.994Z,23.00
2019-05-10T08:25:35.178Z,22.40
2019-05-10T08:27:58.412Z,22.67
2019-05-10T08:30:42.602Z,23.00
2019-05-10T08:33:12.015Z,23.40
2019-05-10T08:35:45.599Z,22.70
2019-05-10T08:38:12.955Z,23.20
2019-05-10T08:40:42.975Z,23.90
2019-05-10T08:43:16.152Z,23.60
2019-05-10T08:45:45.224Z,22.53
2019-05-10T08:48:13.339Z,24.40
2019-05-10T08:50:50.741Z,23.60
2019-05-10T08:53:16.459Z,24.67
2019-05-10T08:55:43.551Z,23.80
2019-05-10T08:58:12.614Z,24.90
2019-05-10T09:00:54.270Z,24.23
2019-05-10T09:03:18.317Z,24.90
2019-05-10T09:05:43.487Z,24.60
2019-05-10T09:08:19.697Z,25.17
2019-05-10T09:10:43.180Z,26.00
2019-05-10T09:13:12.910Z,26.00
2019-05-10T09:15:51.375Z,26.00
2019-05-10T09:18:12.910Z,30.50
2019-05-10T09:20:42.408Z,24.80
2019-05-10T09:23:15.347Z,26.10
2019-05-10T09:25:42.610Z,26.40
2019-05-10T09:28:16.653Z,26.87
2019-05-10T09:30:56.414Z,26.87
2019-05-10T09:33:14.428Z,26.03
2019-05-10T09:35:51.463Z,26.23
2019-05-10T09:38:13.835Z,25.50
2019-05-10T09:40:51.644Z,26.10
2019-05-10T09:43:14.971Z,25.83
2019-05-10T09:45:43.759Z,24.20
2019-05-10T09:48:12.965Z,25.93
2019-05-10T09:50:46.855Z,26.40
2019-05-10T09:53:15.331Z,27.33
2019-05-10T09:55:45.665Z,26.97
2019-05-10T09:58:13.418Z,26.43
2019-05-10T10:00:42.321Z,26.30
2019-05-10T10:03:12.881Z,25.67
2019-05-10T10:05:41.762Z,25.20
2019-05-10T10:08:11.034Z,25.60
2019-05-10T10:10:40.493Z,25.80
2019-05-10T10:13:13.483Z,26.80
2019-05-10T10:15:40.025Z,26.03
2019-05-10T10:18:12.600Z,26.03
2019-05-10T10:20:43.515Z,25.30
2019-05-10T10:23:09.959Z,25.90
2019-05-10T10:25:40.770Z,25.33
2019-05-10T10:28:17.237Z,25.97
2019-05-10T10:30:40.763Z,24.90
2019-05-10T10:33:11.243Z,25.30
2019-05-10T10:35:40.567Z,25.23
2019-05-10T10:38:09.323Z,25.10
2019-05-10T10:40:44.322Z,25.40
2019-05-10T10:43:08.947Z,24.10
2019-05-10T10:45:37.918Z,24.10
2019-05-10T10:48:10.561Z,24.27
2019-05-10T10:50:37.511Z,25.70
2019-05-10T10:53:08.018Z,24.20
2019-05-10T10:55:40.172Z,24.20
2019-05-10T10:58:07.938Z,24.30
2019-05-10T11:00:38.977Z,25.00
2019-05-10T11:03:07.543Z,23.80
2019-05-10T11:05:36.334Z,25.60
2019-05-10T11:08:05.180Z,25.10
2019-05-10T11:10:34.171Z,24.37
2019-05-10T11:13:11.888Z,25.73
2019-05-10T11:15:36.275Z,24.93
2019-05-10T11:18:04.778Z,24.10
2019-05-10T11:20:33.678Z,24.17
2019-05-10T11:23:02.644Z,24.90
2019-05-10T11:25:31.502Z,24.90
2019-05-10T11:28:01.696Z,24.40
2019-05-10T11:30:32.455Z,24.77
2019-05-10T11:33:01.775Z,24.20
2019-05-10T11:35:34.448Z,25.27
2019-05-10T11:38:06.603Z,26.23
2019-05-10T11:40:35.048Z,26.60
2019-05-10T11:43:03.077Z,24.80
2019-05-10T11:45:35.526Z,25.20
2019-05-10T11:48:02.882Z,24.10
2019-05-10T11:50:35.291Z,24.40
2019-05-10T11:53:06.886Z,23.93
2019-05-10T11:55:35.833Z,25.07
2019-05-10T12:00:35.371Z,25.90
2019-05-10T12:03:12.608Z,24.70
2019-05-10T12:05:37.142Z,24.20
2019-05-10T12:08:07.732Z,24.43
2019-05-10T12:10:44.899Z,24.47
2019-05-10T12:13:15.849Z,24.23
2019-05-10T12:15:37.971Z,27.00
2019-05-10T12:18:07.434Z,24.70
2019-05-10T12:20:51.050Z,24.93
2019-05-10T12:23:13.222Z,23.30
2019-05-10T12:26:05.894Z,25.50
2019-05-10T12:26:35.812Z,25.43
2019-05-10T12:28:28.892Z,24.80
2019-05-10T12:30:57.793Z,24.27
2019-05-10T12:33:27.771Z,23.20
2019-05-10T12:35:57.143Z,25.40
2019-05-10T12:38:29.714Z,24.10
2019-05-10T12:40:56.587Z,24.53
2019-05-10T12:43:25.333Z,26.27
2019-05-10T12:45:54.163Z,26.40
2019-05-10T12:48:23.605Z,24.17
2019-05-10T12:50:58.060Z,24.13
2019-05-10T12:53:23.299Z,24.73
2019-05-10T12:55:52.068Z,24.27
2019-05-10T12:58:20.984Z,25.00
2019-05-10T13:00:52.517Z,23.40
2019-05-10T13:03:25.472Z,24.30
2019-05-10T13:05:53.330Z,24.63
2019-05-10T13:08:23.448Z,26.20
2019-05-10T13:10:52.588Z,25.53
2019-05-10T13:13:23.726Z,25.77
2019-05-10T13:15:57.364Z,24.30
2019-05-10T13:18:48.176Z,24.37
2019-05-10T13:20:57.087Z,24.27
2019-05-10T13:23:25.936Z,27.93
2019-05-10T13:25:55.230Z,25.67
2019-05-10T13:28:24.085Z,24.17
2019-05-10T13:30:53.253Z,25.90
2019-05-10T13:33:28.881Z,23.80
2019-05-10T13:35:56.545Z,24.83
2019-05-10T13:38:23.888Z,23.60
2019-05-10T13:40:53.085Z,23.23
2019-05-10T13:43:26.511Z,23.63
2019-05-10T13:45:52.687Z,24.17
2019-05-10T13:48:25.835Z,24.30
2019-05-10T13:50:52.252Z,24.03
2019-05-10T13:53:23.263Z,24.27
2019-05-10T13:55:51.599Z,24.37
2019-05-10T13:58:21.061Z,24.17
2019-05-10T14:00:50.177Z,23.37
2019-05-10T14:03:19.526Z,24.47
2019-05-10T14:05:48.826Z,24.80
2019-05-10T14:08:17.587Z,24.40
2019-05-10T14:10:49.348Z,24.40
2019-05-10T14:13:17.180Z,24.17
2019-05-10T14:15:46.148Z,24.10
2019-05-10T14:18:14.995Z,24.43
2019-05-10T14:20:43.778Z,23.73
2019-05-10T14:23:12.614Z,24.30
2019-05-10T14:25:41.458Z,24.80
2019-05-10T14:28:16.123Z,25.07
2019-05-10T14:30:40.842Z,24.97
2019-05-10T14:33:29.051Z,25.77
2019-05-10T14:36:00.928Z,25.70
2019-05-10T14:38:28.587Z,24.73
2019-05-10T14:40:57.407Z,25.37
2019-05-10T14:43:26.617Z,24.30
2019-05-10T14:45:56.334Z,25.87
2019-05-10T14:48:28.783Z,25.03
2019-05-10T14:50:55.834Z,24.80
2019-05-10T14:53:25.519Z,25.23
2019-05-10T14:55:55.531Z,26.10
2019-05-10T14:58:24.792Z,24.97
2019-05-10T15:00:53.583Z,25.63
2019-05-10T15:03:22.782Z,25.50
2019-05-10T15:05:55.352Z,25.43
2019-05-10T15:08:23.960Z,24.97
2019-05-10T15:10:53.036Z,25.60
2019-05-10T15:13:25.615Z,28.03
2019-05-10T15:15:53.395Z,25.73
2019-05-10T15:18:22.406Z,25.17
2019-05-10T15:20:51.405Z,25.20
2019-05-10T15:23:20.316Z,26.47
2019-05-10T15:25:57.065Z,25.73
2019-05-10T15:28:19.968Z,25.43
2019-05-10T15:30:52.172Z,24.47
2019-05-10T15:33:19.644Z,25.00
2019-05-10T15:35:51.856Z,24.50
2019-05-10T15:38:19.039Z,24.67
2019-05-10T15:40:48.402Z,24.80
2019-05-10T15:43:18.979Z,25.27
2019-05-10T15:45:52.343Z,24.80
2019-05-10T15:48:20.139Z,24.80
2019-05-10T15:50:49.368Z,26.47
2019-05-10T15:53:19.322Z,24.70
2019-05-10T15:55:49.274Z,26.37
2019-05-10T15:58:19.369Z,26.53
2019-05-10T16:00:50.288Z,25.27
2019-05-10T16:03:20.171Z,25.70
2019-05-10T16:06:00.328Z,26.60
2019-05-10T16:08:24.069Z,24.73
2019-05-10T16:10:50.000Z,24.53
2019-05-10T16:13:23.574Z,24.60
2019-05-10T16:15:51.669Z,25.73
2019-05-10T16:18:20.255Z,24.90
2019-05-10T16:20:49.508Z,25.20
2019-05-10T16:23:18.511Z,25.77
2019-05-10T16:25:48.560Z,23.93
2019-05-10T16:28:20.680Z,24.53
2019-05-10T16:30:48.580Z,23.87
2019-05-10T16:33:18.209Z,24.13
2019-05-10T16:35:52.171Z,24.33
2019-05-10T16:38:21.406Z,24.13
2019-05-10T16:40:58.348Z,27.77
2019-05-10T16:43:24.622Z,25.23
2019-05-10T16:45:52.397Z,24.40
2019-05-10T16:48:21.448Z,23.50
2019-05-10T16:50:50.294Z,23.73
2019-05-10T16:53:19.036Z,25.23
2019-05-10T16:55:47.922Z,25.57
2019-05-10T16:58:18.026Z,23.00
2019-05-10T17:00:48.117Z,22.87
2019-05-10T17:03:18.339Z,25.07
2019-05-10T17:05:53.350Z,22.93
2019-05-10T17:08:19.237Z,23.53
2019-05-10T17:10:48.875Z,22.60
2019-05-10T17:13:17.759Z,24.00
2019-05-10T17:15:46.840Z,23.23
2019-05-10T17:18:19.888Z,23.90
2019-05-10T17:20:50.977Z,23.53
2019-05-10T17:23:17.600Z,24.40
2019-05-10T17:25:46.423Z,24.00
2019-05-10T17:28:15.365Z,24.27
2019-05-10T17:30:45.030Z,23.70
2019-05-10T17:33:14.809Z,22.97
2019-05-10T17:35:44.179Z,22.90
2019-05-10T17:38:16.143Z,23.57
2019-05-10T17:40:47.996Z,23.40
2019-05-10T17:43:20.643Z,24.30
2019-05-10T17:45:47.078Z,23.77
2019-05-10T17:48:17.628Z,24.57
2019-05-10T17:50:48.633Z,23.97
2019-05-10T17:53:18.514Z,23.73
2019-05-10T17:55:49.372Z,23.67
2019-05-10T17:58:21.361Z,24.23
2019-05-10T18:00:51.038Z,25.20
2019-05-10T18:03:20.363Z,23.77
2019-05-10T18:05:53.177Z,23.20
2019-05-10T18:08:20.922Z,25.57
2019-05-10T18:10:49.929Z,24.27
2019-05-10T18:13:19.413Z,35.40
2019-05-10T18:15:48.355Z,30.50
2019-05-10T18:18:17.402Z,23.43
2019-05-10T18:20:46.508Z,24.67
2019-05-10T18:23:21.139Z,24.73
2019-05-10T18:25:46.925Z,24.87
2019-05-10T18:28:19.038Z,32.70
2019-05-10T18:30:46.421Z,24.90
2019-05-10T18:33:15.454Z,24.87
2019-05-10T18:35:47.444Z,40.67
2019-05-10T18:38:17.224Z,25.63
2019-05-10T18:40:46.420Z,24.80
2019-05-10T18:43:15.499Z,24.60
2019-05-10T18:45:44.829Z,24.23
2019-05-10T18:48:14.821Z,23.40
2019-05-10T18:50:45.129Z,24.87
2019-05-10T18:53:14.627Z,24.57
2019-05-10T18:55:43.460Z,24.10
2019-05-10T18:58:12.707Z,23.70
2019-05-10T19:00:41.592Z,24.50
2019-05-10T19:03:10.422Z,24.30
2019-05-10T19:05:39.627Z,23.60
2019-05-10T19:08:09.149Z,24.70
2019-05-10T19:10:38.331Z,25.23
2019-05-10T19:13:07.692Z,28.00
2019-05-10T19:15:37.278Z,27.13
2019-05-10T19:18:06.879Z,27.30
2019-05-10T19:20:35.979Z,27.43
2019-05-10T19:23:05.618Z,25.97
2019-05-10T19:25:37.551Z,26.83
2019-05-10T19:28:05.343Z,26.03
2019-05-10T19:30:34.263Z,25.30
2019-05-10T19:33:03.208Z,24.90
2019-05-10T19:35:35.872Z,34.17
2019-05-10T19:38:02.993Z,26.80
2019-05-10T19:40:32.798Z,25.90
2019-05-10T19:43:02.521Z,26.40
2019-05-10T19:45:31.350Z,25.63
2019-05-10T19:48:00.455Z,26.33
2019-05-10T19:50:32.818Z,25.20
2019-05-10T19:53:03.662Z,25.33
2019-05-10T19:55:31.456Z,26.10
2019-05-10T19:58:00.656Z,25.60
2019-05-10T20:00:30.327Z,26.50
2019-05-10T20:03:02.149Z,24.80
2019-05-10T20:05:31.391Z,25.77
2019-05-10T20:08:00.770Z,28.50
2019-05-10T20:10:29.773Z,27.73
2019-05-10T20:12:59.019Z,28.20
2019-05-10T20:15:28.276Z,30.90
2019-05-10T20:17:57.110Z,27.70
2019-05-10T20:20:26.574Z,28.13
2019-05-10T20:22:55.604Z,26.97
2019-05-10T20:25:43.803Z,27.40
2019-05-10T20:28:13.116Z,25.50
2019-05-10T20:30:42.384Z,25.37
2019-05-10T20:33:12.327Z,25.57
2019-05-10T20:36:00.535Z,25.60
2019-05-10T20:38:29.359Z,24.10
2019-05-10T20:40:58.203Z,25.30
2019-05-10T20:43:27.968Z,25.57
2019-05-10T20:45:57.321Z,24.37
2019-05-10T20:48:29.077Z,25.13
2019-05-10T20:51:17.389Z,25.53
2019-05-10T20:54:12.160Z,24.20
2019-05-10T20:56:41.314Z,26.20
2019-05-10T20:59:10.547Z,24.50
2019-05-10T21:01:39.887Z,26.00
2019-05-10T21:04:08.756Z,25.70
2019-05-10T21:06:37.705Z,24.77
2019-05-10T21:09:07.054Z,25.50
2019-05-10T21:11:35.989Z,24.60
2019-05-10T21:14:04.984Z,25.53
2019-05-10T21:16:33.844Z,25.40
2019-05-10T21:19:03.031Z,25.10
2019-05-10T21:21:31.808Z,25.07
2019-05-10T21:24:01.653Z,25.23
2019-05-10T21:26:30.834Z,24.13
2019-05-10T21:29:00.171Z,25.57
2019-05-10T21:31:29.326Z,23.33
2019-05-10T21:34:09.080Z,23.93
2019-05-10T21:36:28.947Z,23.20
2019-05-10T21:38:58.529Z,29.77
2019-05-10T21:41:27.827Z,47.87
2019-05-10T21:43:56.904Z,27.00
2019-05-10T21:46:26.111Z,24.80
2019-05-10T21:48:56.344Z,23.70
2019-05-10T21:51:25.442Z,23.53
2019-05-10T21:53:54.954Z,24.00
2019-05-10T21:56:23.834Z,23.07
2019-05-10T21:58:52.733Z,23.27
2019-05-10T22:01:22.083Z,23.30
2019-05-10T22:03:51.079Z,22.67
2019-05-10T22:06:20.225Z,24.03
2019-05-10T22:08:49.905Z,25.20
2019-05-10T22:11:19.877Z,25.33
2019-05-10T22:13:48.779Z,24.57
2019-05-10T22:16:17.668Z,22.67
2019-05-10T22:18:48.374Z,24.10
2019-05-10T22:21:17.241Z,23.50
2019-05-10T22:23:46.145Z,23.33
2019-05-10T22:26:15.063Z,24.10
2019-05-10T22:28:43.851Z,24.43
2019-05-10T22:31:12.742Z,22.53
2019-05-10T22:33:41.820Z,23.50
2019-05-10T22:36:11.080Z,22.80
2019-05-10T22:38:39.914Z,24.10
2019-05-10T22:41:09.412Z,23.57
2019-05-10T22:43:38.252Z,23.10
2019-05-10T22:46:07.224Z,25.40
2019-05-10T22:48:36.091Z,23.80
2019-05-10T22:51:04.895Z,23.17
2019-05-10T22:53:33.947Z,23.33
2019-05-10T22:56:02.821Z,23.03
2019-05-10T22:58:31.903Z,22.87
2019-05-10T23:01:00.642Z,22.83
2019-05-10T23:03:29.847Z,22.40
2019-05-10T23:05:58.676Z,22.43
2019-05-10T23:08:27.602Z,22.37
2019-05-10T23:10:56.434Z,23.20
2019-05-10T23:13:25.210Z,22.60
2019-05-10T23:15:54.325Z,23.27
2019-05-10T23:18:23.078Z,22.90
2019-05-10T23:20:51.884Z,23.60
2019-05-10T23:23:21.232Z,23.43
2019-05-10T23:25:51.092Z,23.27
2019-05-10T23:28:19.903Z,23.10
2019-05-10T23:30:49.407Z,24.20
2019-05-10T23:33:18.195Z,23.23
2019-05-10T23:35:47.075Z,23.20
2019-05-10T23:38:15.974Z,23.87
2019-05-10T23:40:44.807Z,23.60
2019-05-10T23:43:13.673Z,24.00
2019-05-10T23:45:42.473Z,22.57
2019-05-10T23:48:11.501Z,22.90
2019-05-10T23:50:40.605Z,23.77
2019-05-10T23:53:09.684Z,23.00
2019-05-10T23:55:38.494Z,22.80
2019-05-10T23:58:07.518Z,23.20
